17°C Temp
15°C Dewpoint
88% Humidity
Temperature
8 KM/H
5 MPH
4 KTS
180°
Due South

Wind Speed
Clear
Conditions
Pressure 1020.62 (hPa) - 30.14 (in)
Visibility 8.7 (mi) - 14.0 (km)

Current Conditions
CYZE
Location 50(km)
Metar :CYZE 080400Z AUTO 18004KT 9SM CLR 17/15 A3014 RMK SLP208 DENSITY ALT 700FT
Sat 8th August 00:00 am

Airport
  Metar Aviation API Data Provided by https://www.checkwx.com/ PHP scripts by weather34.com ©2020